Terminal Aerodrome Forecast
Issued by NWS

Home | Current Version | Previous Version | Text Only | Print | Product List | Glossary On
Versions: 1 2 3 4 5 6 7 8 9 10 11 12 13 14 15 16 17 18 19 20 21
868
FTUS42 KILM 290520
TAFCRE
TAF
KCRE 290520Z 2906/3006 28007KT P6SM FEW050
     FM290900 32008KT P6SM FEW060
     FM291100 36008KT P6SM FEW060
     FM300400 09010KT P6SM SCT040
     FM300500 09010KT P6SM SCT250=

USA.gov is the U.S. government's official web portal to all federal, state and local government web resources and services.